SWR3KH LKPR-LSZH
Flight info
| Callsign | SWR3KH |
|---|---|
| Flight time | 0h 47m |
| Altitude | 34000 |
| Route | BALTU DCT DONAD DCT OKG L984 KULOK Z715 ANELA N869 TEDGO T724 RILAX |
| Aircraft | A359/H-SDE2E3GHIJ3J4J5LM1ORWXY/LB1D1 |
Departure
| Time | 2026-04-30 19:06 |
|---|---|
| Airport | Václav Havel Airport Prague (LKPR) |
Arrival
| Time | 2026-04-30 19:53 |
|---|---|
| Airport | Zürich Airport (LSZH) |
| Time | Latitude | Longitude | Altitude | Speed | Heading |
|---|---|---|---|---|---|
| 2026-04-30 18:23 | 50.10622 | 14.26201 | 1180 ft | 0 kts | 34° |
| 2026-04-30 18:45 | 50.10597 | 14.26174 | 1175 ft | 4 kts | 33° |
| 2026-04-30 18:45 | 50.10574 | 14.26154 | 1175 ft | 4 kts | 16° |
| 2026-04-30 18:45 | 50.10554 | 14.26154 | 1175 ft | 3 kts | 306° |
| 2026-04-30 18:46 | 50.10540 | 14.26186 | 1175 ft | 4 kts | 304° |
| 2026-04-30 18:46 | 50.10534 | 14.26199 | 1175 ft | 2 kts | 304° |
| 2026-04-30 18:46 | 50.10538 | 14.26164 | 1175 ft | 4 kts | 267° |
| 2026-04-30 18:46 | 50.10533 | 14.26125 | 1175 ft | 2 kts | 259° |
| 2026-04-30 18:47 | 50.10534 | 14.26123 | 1175 ft | 0 kts | 259° |
| 2026-04-30 18:57 | 50.10528 | 14.26078 | 1176 ft | 6 kts | 259° |
| 2026-04-30 18:58 | 50.10523 | 14.26033 | 1178 ft | 0 kts | 259° |
| 2026-04-30 18:59 | 50.10513 | 14.25963 | 1173 ft | 10 kts | 258° |
| 2026-04-30 19:00 | 50.10553 | 14.25746 | 1176 ft | 11 kts | 28° |
| 2026-04-30 19:00 | 50.10555 | 14.25850 | 1175 ft | 12 kts | 119° |
| 2026-04-30 19:00 | 50.10433 | 14.26113 | 1177 ft | 18 kts | 127° |
| 2026-04-30 19:01 | 50.10264 | 14.26462 | 1178 ft | 22 kts | 126° |
| 2026-04-30 19:01 | 50.10168 | 14.26666 | 1185 ft | 24 kts | 127° |
| 2026-04-30 19:02 | 50.09985 | 14.27044 | 1203 ft | 20 kts | 127° |
| 2026-04-30 19:02 | 50.09807 | 14.27383 | 1210 ft | 21 kts | 135° |
| 2026-04-30 19:03 | 50.09588 | 14.27719 | 1217 ft | 23 kts | 137° |
| 2026-04-30 19:03 | 50.09355 | 14.28078 | 1221 ft | 25 kts | 135° |
| 2026-04-30 19:04 | 50.09167 | 14.28289 | 1218 ft | 6 kts | 178° |
| 2026-04-30 19:04 | 50.09111 | 14.28210 | 1217 ft | 9 kts | 232° |
| 2026-04-30 19:05 | 50.09112 | 14.28034 | 1215 ft | 0 kts | 302° |
| 2026-04-30 19:05 | 50.09284 | 14.27670 | 1219 ft | 80 kts | 307° |
| 2026-04-30 19:06 | 50.10483 | 14.25245 | 1623 ft | 174 kts | 312° |
| 2026-04-30 19:06 | 50.11264 | 14.23756 | 2451 ft | 181 kts | 314° |
| 2026-04-30 19:06 | 50.12940 | 14.20397 | 3352 ft | 217 kts | 309° |
| 2026-04-30 19:07 | 50.14866 | 14.16230 | 4131 ft | 256 kts | 309° |
| 2026-04-30 19:07 | 50.15936 | 14.13964 | 4804 ft | 263 kts | 309° |
| 2026-04-30 19:08 | 50.18160 | 14.09293 | 6307 ft | 272 kts | 309° |
| 2026-04-30 19:08 | 50.20464 | 14.04475 | 7758 ft | 280 kts | 310° |
| 2026-04-30 19:08 | 50.21614 | 14.01995 | 8511 ft | 284 kts | 306° |
| 2026-04-30 19:09 | 50.22405 | 13.95956 | 9961 ft | 301 kts | 259° |
| 2026-04-30 19:09 | 50.21825 | 13.92784 | 10619 ft | 308 kts | 253° |
| 2026-04-30 19:09 | 50.21116 | 13.89524 | 10947 ft | 325 kts | 252° |
| 2026-04-30 19:10 | 50.19603 | 13.82524 | 11597 ft | 353 kts | 252° |
| 2026-04-30 19:10 | 50.18031 | 13.75143 | 12762 ft | 362 kts | 253° |
| 2026-04-30 19:11 | 50.17233 | 13.71384 | 13330 ft | 367 kts | 253° |
| 2026-04-30 19:11 | 50.15611 | 13.63753 | 14488 ft | 374 kts | 253° |
| 2026-04-30 19:11 | 50.14797 | 13.59930 | 15012 ft | 378 kts | 253° |
| 2026-04-30 19:12 | 50.13963 | 13.56020 | 15546 ft | 381 kts | 253° |
| 2026-04-30 19:12 | 50.13122 | 13.52083 | 16090 ft | 385 kts | 254° |
| 2026-04-30 19:12 | 50.12270 | 13.48103 | 16633 ft | 388 kts | 254° |
| 2026-04-30 19:13 | 50.10542 | 13.40053 | 17688 ft | 396 kts | 254° |
| 2026-04-30 19:13 | 50.08992 | 13.31757 | 18687 ft | 401 kts | 265° |
| 2026-04-30 19:13 | 50.08672 | 13.27443 | 19137 ft | 402 kts | 270° |
| 2026-04-30 19:14 | 50.08518 | 13.23084 | 19585 ft | 404 kts | 272° |
| 2026-04-30 19:14 | 50.08440 | 13.18691 | 20031 ft | 407 kts | 273° |
| 2026-04-30 19:14 | 50.08381 | 13.14265 | 20478 ft | 410 kts | 273° |
| 2026-04-30 19:14 | 50.08312 | 13.09860 | 20914 ft | 413 kts | 273° |
| 2026-04-30 19:15 | 50.08224 | 13.05370 | 21349 ft | 417 kts | 273° |
| 2026-04-30 19:15 | 50.07402 | 12.96301 | 22183 ft | 429 kts | 262° |
| 2026-04-30 19:15 | 50.06727 | 12.91754 | 22591 ft | 433 kts | 260° |
| 2026-04-30 19:16 | 50.05984 | 12.87185 | 22974 ft | 437 kts | 258° |
| 2026-04-30 19:16 | 50.05202 | 12.82597 | 23420 ft | 440 kts | 258° |
| 2026-04-30 19:16 | 50.03597 | 12.73321 | 24195 ft | 447 kts | 258° |
| 2026-04-30 19:17 | 50.02788 | 12.68631 | 24558 ft | 449 kts | 258° |
| 2026-04-30 19:17 | 50.01178 | 12.59245 | 25275 ft | 455 kts | 258° |
| 2026-04-30 19:17 | 50.00363 | 12.54483 | 25660 ft | 457 kts | 258° |
| 2026-04-30 19:18 | 49.98981 | 12.46427 | 26332 ft | 461 kts | 258° |
| 2026-04-30 19:18 | 49.97880 | 12.40036 | 26876 ft | 466 kts | 258° |
| 2026-04-30 19:18 | 49.96965 | 12.35176 | 27268 ft | 470 kts | 253° |
| 2026-04-30 19:19 | 49.95780 | 12.30424 | 27752 ft | 473 kts | 250° |
| 2026-04-30 19:19 | 49.94495 | 12.25737 | 28174 ft | 477 kts | 249° |
| 2026-04-30 19:19 | 49.91713 | 12.16226 | 29074 ft | 485 kts | 248° |
| 2026-04-30 19:20 | 49.90306 | 12.11507 | 29520 ft | 489 kts | 248° |
| 2026-04-30 19:20 | 49.88876 | 12.06708 | 29977 ft | 492 kts | 248° |
| 2026-04-30 19:20 | 49.85988 | 11.96976 | 30831 ft | 499 kts | 248° |
| 2026-04-30 19:21 | 49.84538 | 11.92083 | 31257 ft | 501 kts | 248° |
| 2026-04-30 19:21 | 49.81613 | 11.82217 | 32112 ft | 504 kts | 248° |
| 2026-04-30 19:22 | 49.78676 | 11.72354 | 33049 ft | 506 kts | 248° |
| 2026-04-30 19:22 | 49.74202 | 11.57399 | 34195 ft | 514 kts | 248° |
| 2026-04-30 19:23 | 49.69782 | 11.42750 | 34414 ft | 480 kts | 248° |
| 2026-04-30 19:24 | 49.65566 | 11.28813 | 34394 ft | 493 kts | 247° |
| 2026-04-30 19:24 | 49.62596 | 11.19020 | 34389 ft | 514 kts | 247° |
| 2026-04-30 19:25 | 49.58010 | 11.04043 | 34372 ft | 514 kts | 247° |
| 2026-04-30 19:26 | 49.51801 | 10.84194 | 34379 ft | 516 kts | 242° |
| 2026-04-30 19:27 | 49.45317 | 10.71927 | 34394 ft | 515 kts | 226° |
| 2026-04-30 19:28 | 49.37768 | 10.60187 | 34372 ft | 514 kts | 226° |
| 2026-04-30 19:29 | 49.27771 | 10.44535 | 34372 ft | 514 kts | 225° |
| 2026-04-30 19:30 | 49.17626 | 10.29068 | 34377 ft | 515 kts | 225° |
| 2026-04-30 19:31 | 49.09047 | 10.13988 | 34360 ft | 512 kts | 232° |
| 2026-04-30 19:31 | 49.02372 | 10.01315 | 34347 ft | 511 kts | 232° |
| 2026-04-30 19:32 | 48.97906 | 9.92878 | 34343 ft | 511 kts | 231° |
| 2026-04-30 19:32 | 48.93434 | 9.84478 | 34340 ft | 510 kts | 231° |
| 2026-04-30 19:33 | 48.88986 | 9.76154 | 34340 ft | 510 kts | 231° |
| 2026-04-30 19:33 | 48.84502 | 9.67781 | 34328 ft | 510 kts | 231° |
| 2026-04-30 19:34 | 48.80015 | 9.59445 | 34312 ft | 508 kts | 231° |
| 2026-04-30 19:34 | 48.75561 | 9.51195 | 32714 ft | 509 kts | 230° |
| 2026-04-30 19:35 | 48.73299 | 9.47013 | 31611 ft | 516 kts | 230° |
| 2026-04-30 19:35 | 48.71010 | 9.42780 | 30635 ft | 520 kts | 230° |
| 2026-04-30 19:35 | 48.68725 | 9.38564 | 29824 ft | 518 kts | 230° |
| 2026-04-30 19:35 | 48.66472 | 9.34418 | 29115 ft | 513 kts | 230° |
| 2026-04-30 19:36 | 48.64180 | 9.30210 | 28447 ft | 508 kts | 230° |
| 2026-04-30 19:36 | 48.61837 | 9.26368 | 27806 ft | 502 kts | 220° |
| 2026-04-30 19:36 | 48.56471 | 9.19807 | 26564 ft | 491 kts | 216° |
| 2026-04-30 19:37 | 48.53755 | 9.16732 | 25958 ft | 486 kts | 215° |
| 2026-04-30 19:37 | 48.51041 | 9.13722 | 25319 ft | 481 kts | 215° |
| 2026-04-30 19:37 | 48.48350 | 9.10758 | 24719 ft | 477 kts | 215° |
| 2026-04-30 19:37 | 48.45683 | 9.07820 | 24167 ft | 471 kts | 215° |
| 2026-04-30 19:38 | 48.43061 | 9.04927 | 23584 ft | 465 kts | 215° |
| 2026-04-30 19:38 | 48.40491 | 9.02083 | 22891 ft | 461 kts | 215° |
| 2026-04-30 19:38 | 48.38300 | 8.99655 | 22292 ft | 457 kts | 215° |
| 2026-04-30 19:38 | 48.35755 | 8.96835 | 21647 ft | 453 kts | 215° |
| 2026-04-30 19:39 | 48.33231 | 8.94039 | 21002 ft | 448 kts | 215° |
| 2026-04-30 19:39 | 48.30744 | 8.91286 | 20505 ft | 443 kts | 215° |
| 2026-04-30 19:39 | 48.28260 | 8.88526 | 20328 ft | 444 kts | 215° |
| 2026-04-30 19:39 | 48.25771 | 8.85757 | 20308 ft | 444 kts | 215° |
| 2026-04-30 19:40 | 48.23288 | 8.82994 | 20304 ft | 443 kts | 215° |
| 2026-04-30 19:40 | 48.20827 | 8.80259 | 20158 ft | 437 kts | 215° |
| 2026-04-30 19:40 | 48.18396 | 8.77560 | 19488 ft | 434 kts | 215° |
| 2026-04-30 19:40 | 48.15978 | 8.74879 | 18790 ft | 433 kts | 215° |
| 2026-04-30 19:41 | 48.13559 | 8.72225 | 18117 ft | 428 kts | 214° |
| 2026-04-30 19:41 | 48.11160 | 8.69615 | 17440 ft | 424 kts | 214° |
| 2026-04-30 19:41 | 48.08790 | 8.67048 | 16920 ft | 416 kts | 214° |
| 2026-04-30 19:41 | 48.06508 | 8.64578 | 16646 ft | 403 kts | 214° |
| 2026-04-30 19:42 | 48.04249 | 8.62132 | 16409 ft | 390 kts | 214° |
| 2026-04-30 19:42 | 48.02090 | 8.59793 | 16189 ft | 377 kts | 214° |
| 2026-04-30 19:42 | 48.00028 | 8.57559 | 15958 ft | 365 kts | 214° |
| 2026-04-30 19:42 | 47.98029 | 8.55394 | 15662 ft | 344 kts | 214° |
| 2026-04-30 19:43 | 47.96127 | 8.53336 | 15119 ft | 332 kts | 214° |
| 2026-04-30 19:43 | 47.94167 | 8.51630 | 14421 ft | 323 kts | 200° |
| 2026-04-30 19:43 | 47.92073 | 8.50513 | 13677 ft | 317 kts | 195° |
| 2026-04-30 19:44 | 47.87911 | 8.48636 | 12141 ft | 308 kts | 193° |
| 2026-04-30 19:44 | 47.85979 | 8.47794 | 11467 ft | 303 kts | 193° |
| 2026-04-30 19:44 | 47.83966 | 8.46922 | 10740 ft | 299 kts | 193° |
| 2026-04-30 19:44 | 47.82076 | 8.45711 | 10002 ft | 297 kts | 213° |
| 2026-04-30 19:45 | 47.80619 | 8.43590 | 9211 ft | 297 kts | 230° |
| 2026-04-30 19:45 | 47.79393 | 8.41130 | 8499 ft | 294 kts | 233° |
| 2026-04-30 19:45 | 47.78221 | 8.38649 | 7980 ft | 293 kts | 233° |
| 2026-04-30 19:45 | 47.77041 | 8.36169 | 7562 ft | 292 kts | 233° |
| 2026-04-30 19:46 | 47.75869 | 8.33720 | 7189 ft | 289 kts | 233° |
| 2026-04-30 19:46 | 47.74710 | 8.31306 | 6811 ft | 285 kts | 232° |
| 2026-04-30 19:46 | 47.73512 | 8.28992 | 6431 ft | 280 kts | 225° |
| 2026-04-30 19:46 | 47.71929 | 8.27456 | 6043 ft | 268 kts | 195° |
| 2026-04-30 19:47 | 47.70128 | 8.27075 | 5686 ft | 259 kts | 178° |
| 2026-04-30 19:47 | 47.68936 | 8.27118 | 5425 ft | 257 kts | 172° |
| 2026-04-30 19:47 | 47.66797 | 8.28238 | 4987 ft | 237 kts | 141° |
| 2026-04-30 19:47 | 47.65573 | 8.29802 | 4705 ft | 228 kts | 132° |
| 2026-04-30 19:48 | 47.64441 | 8.31415 | 4459 ft | 223 kts | 131° |
| 2026-04-30 19:48 | 47.63324 | 8.32961 | 4205 ft | 216 kts | 130° |
| 2026-04-30 19:48 | 47.62238 | 8.34454 | 4014 ft | 207 kts | 130° |
| 2026-04-30 19:48 | 47.61222 | 8.35843 | 3987 ft | 197 kts | 131° |
| 2026-04-30 19:49 | 47.60215 | 8.37221 | 4006 ft | 196 kts | 131° |
| 2026-04-30 19:49 | 47.58290 | 8.39845 | 3995 ft | 178 kts | 131° |
| 2026-04-30 19:49 | 47.57384 | 8.41086 | 3931 ft | 177 kts | 131° |
| 2026-04-30 19:50 | 47.56500 | 8.42299 | 3714 ft | 169 kts | 130° |
| 2026-04-30 19:50 | 47.55663 | 8.43438 | 3480 ft | 157 kts | 129° |
| 2026-04-30 19:50 | 47.54894 | 8.44491 | 3246 ft | 144 kts | 128° |
| 2026-04-30 19:50 | 47.54179 | 8.45469 | 3076 ft | 137 kts | 127° |
| 2026-04-30 19:51 | 47.53481 | 8.46430 | 2887 ft | 138 kts | 128° |
| 2026-04-30 19:51 | 47.52789 | 8.47369 | 2689 ft | 131 kts | 128° |
| 2026-04-30 19:51 | 47.52133 | 8.48264 | 2520 ft | 130 kts | 128° |
| 2026-04-30 19:51 | 47.51460 | 8.49175 | 2297 ft | 134 kts | 132° |
| 2026-04-30 19:52 | 47.50762 | 8.50124 | 2127 ft | 138 kts | 129° |
| 2026-04-30 19:52 | 47.50058 | 8.51093 | 1925 ft | 138 kts | 130° |
| 2026-04-30 19:52 | 47.49366 | 8.52045 | 1725 ft | 134 kts | 132° |
| 2026-04-30 19:52 | 47.48680 | 8.52967 | 1588 ft | 134 kts | 131° |
| 2026-04-30 19:53 | 47.47982 | 8.53913 | 1433 ft | 136 kts | 133° |
| 2026-04-30 19:53 | 47.47351 | 8.54784 | 1405 ft | 104 kts | 137° |
| 2026-04-30 19:53 | 47.46935 | 8.55351 | 1407 ft | 58 kts | 137° |
| 2026-04-30 19:53 | 47.46732 | 8.55609 | 1410 ft | 31 kts | 150° |
| 2026-04-30 19:54 | 47.46550 | 8.55696 | 1410 ft | 24 kts | 167° |
| 2026-04-30 19:54 | 47.46390 | 8.55761 | 1410 ft | 24 kts | 152° |
| 2026-04-30 19:54 | 47.46263 | 8.55923 | 1417 ft | 21 kts | 136° |
| 2026-04-30 19:54 | 47.46184 | 8.55999 | 1418 ft | 13 kts | 170° |
| 2026-04-30 19:55 | 47.46094 | 8.55989 | 1415 ft | 14 kts | 187° |
| 2026-04-30 19:55 | 47.45985 | 8.55973 | 1415 ft | 18 kts | 186° |
| 2026-04-30 19:55 | 47.45866 | 8.55914 | 1421 ft | 18 kts | 201° |
| 2026-04-30 19:55 | 47.45734 | 8.55870 | 1419 ft | 18 kts | 186° |
| 2026-04-30 19:56 | 47.45659 | 8.55849 | 1422 ft | 4 kts | 223° |
| 2026-04-30 19:56 | 47.45645 | 8.55793 | 1419 ft | 8 kts | 259° |
| 2026-04-30 19:56 | 47.45652 | 8.55682 | 1416 ft | 13 kts | 277° |
| 2026-04-30 19:56 | 47.45662 | 8.55518 | 1413 ft | 18 kts | 274° |
| 2026-04-30 19:57 | 47.45665 | 8.55379 | 1408 ft | 10 kts | 248° |
| 2026-04-30 19:57 | 47.45601 | 8.55358 | 1415 ft | 10 kts | 159° |
| 2026-04-30 19:57 | 47.45528 | 8.55403 | 1414 ft | 12 kts | 156° |
| 2026-04-30 19:57 | 47.45450 | 8.55453 | 1416 ft | 13 kts | 156° |
| 2026-04-30 19:58 | 47.45372 | 8.55512 | 1421 ft | 14 kts | 153° |
| 2026-04-30 19:58 | 47.45277 | 8.55519 | 1415 ft | 17 kts | 183° |
| 2026-04-30 19:58 | 47.45153 | 8.55549 | 1417 ft | 20 kts | 157° |
| 2026-04-30 19:58 | 47.45017 | 8.55632 | 1413 ft | 14 kts | 156° |
| 2026-04-30 19:59 | 47.44965 | 8.55695 | 1413 ft | 10 kts | 115° |
| 2026-04-30 19:59 | 47.44952 | 8.55795 | 1413 ft | 8 kts | 91° |
| 2026-04-30 19:59 | 47.44965 | 8.55827 | 1417 ft | 0 kts | 47° |
| 2026-04-30 20:00 | 47.44970 | 8.55832 | 1409 ft | 0 kts | 35° |
| 2026-04-30 20:00 | 47.44977 | 8.55838 | 1417 ft | 4 kts | 30° |
| 2026-04-30 20:00 | 47.44993 | 8.55846 | 1419 ft | 0 kts | 17° |
| 2026-04-30 20:01 | 47.45024 | 8.55855 | 1418 ft | 4 kts | 8° |
| 2026-04-30 20:01 | 47.45037 | 8.55857 | 1418 ft | 0 kts | 8° |